createdAt,value
2022-08-18T00:00:03.631Z,100.00
2022-08-18T00:02:30.720Z,100.00
2022-08-18T00:04:57.399Z,100.00
2022-08-18T00:07:24.573Z,100.00
2022-08-18T00:09:50.868Z,100.00
2022-08-18T00:12:17.114Z,100.00
2022-08-18T00:14:43.397Z,100.00
2022-08-18T00:17:09.640Z,100.00
2022-08-18T00:19:46.692Z,100.00
2022-08-18T00:22:14.791Z,100.00
2022-08-18T00:24:48.356Z,100.00
2022-08-18T00:27:15.281Z,100.00
2022-08-18T00:29:41.608Z,100.00
2022-08-18T00:32:07.831Z,100.00
2022-08-18T00:34:34.071Z,100.00
2022-08-18T00:37:00.301Z,100.00
2022-08-18T00:39:26.631Z,100.00
2022-08-18T00:42:01.207Z,100.00
2022-08-18T00:44:27.473Z,100.00
2022-08-18T00:46:53.682Z,100.00
2022-08-18T00:49:19.924Z,100.00
2022-08-18T00:51:46.160Z,100.00
2022-08-18T00:54:12.399Z,100.00
2022-08-18T00:56:38.677Z,100.00
2022-08-18T01:01:31.221Z,100.00
2022-08-18T01:03:57.517Z,100.00
2022-08-18T01:06:23.733Z,100.00
2022-08-18T01:08:49.979Z,100.00
2022-08-18T01:11:16.207Z,100.00
2022-08-18T01:13:42.515Z,100.00
2022-08-18T01:16:08.849Z,100.00
2022-08-18T01:18:35.056Z,100.00
2022-08-18T01:21:01.304Z,100.00
2022-08-18T01:23:27.564Z,100.00
2022-08-18T01:25:53.805Z,100.00
2022-08-18T01:28:20.079Z,100.00
2022-08-18T01:30:46.301Z,100.00
2022-08-18T01:33:12.520Z,100.00
2022-08-18T01:35:41.967Z,100.00
2022-08-18T01:38:08.332Z,100.00
2022-08-18T01:41:17.512Z,100.00
2022-08-18T01:43:20.842Z,100.00
2022-08-18T01:45:47.110Z,100.00
2022-08-18T01:48:13.383Z,100.00
2022-08-18T01:50:39.646Z,100.00
2022-08-18T01:53:05.968Z,100.00
2022-08-18T01:55:32.313Z,100.00
2022-08-18T01:57:58.627Z,100.00
2022-08-18T02:00:25.097Z,100.00
2022-08-18T02:02:58.147Z,100.00
2022-08-18T02:05:28.966Z,100.00
2022-08-18T02:07:57.709Z,100.00
2022-08-18T02:10:23.956Z,100.00
2022-08-18T02:12:50.249Z,100.00
2022-08-18T02:15:16.495Z,100.00
2022-08-18T02:17:42.883Z,100.00
2022-08-18T02:20:09.169Z,100.00
2022-08-18T02:22:35.418Z,100.00
2022-08-18T02:25:01.714Z,100.00
2022-08-18T02:27:27.941Z,100.00
2022-08-18T02:29:54.200Z,100.00
2022-08-18T02:32:20.418Z,100.00
2022-08-18T02:34:46.648Z,100.00
2022-08-18T02:37:15.312Z,100.00
2022-08-18T02:39:41.937Z,100.00
2022-08-18T02:42:08.239Z,100.00
2022-08-18T02:44:34.514Z,100.00
2022-08-18T02:47:00.777Z,100.00
2022-08-18T02:49:27.026Z,100.00
2022-08-18T02:51:53.265Z,100.00
2022-08-18T02:54:19.503Z,100.00
2022-08-18T02:56:45.731Z,100.00
2022-08-18T02:59:12.006Z,100.00
2022-08-18T03:01:38.401Z,100.00
2022-08-18T03:04:04.772Z,100.00
2022-08-18T03:06:31.002Z,100.00
2022-08-18T03:08:57.241Z,100.00
2022-08-18T03:11:23.477Z,100.00
2022-08-18T03:13:49.771Z,100.00
2022-08-18T03:16:16.043Z,100.00
2022-08-18T03:18:42.260Z,100.00
2022-08-18T03:21:08.502Z,100.00
2022-08-18T03:23:35.454Z,100.00
2022-08-18T03:26:01.818Z,100.00
2022-08-18T03:28:28.042Z,100.00
2022-08-18T03:30:57.278Z,100.00
2022-08-18T03:33:23.517Z,100.00
2022-08-18T03:35:49.853Z,100.00
2022-08-18T03:38:16.117Z,100.00
2022-08-18T03:40:42.364Z,100.00
2022-08-18T03:43:49.840Z,100.00
2022-08-18T03:45:54.897Z,100.00
2022-08-18T03:48:21.144Z,100.00
2022-08-18T03:50:47.436Z,100.00
2022-08-18T03:53:13.658Z,100.00
2022-08-18T03:55:39.965Z,100.00
2022-08-18T03:58:06.181Z,100.00
2022-08-18T04:00:32.472Z,100.00
2022-08-18T04:02:58.716Z,100.00
2022-08-18T04:05:24.967Z,100.00
2022-08-18T04:07:51.265Z,100.00
2022-08-18T04:10:19.338Z,100.00
2022-08-18T04:12:46.061Z,100.00
2022-08-18T04:15:12.308Z,100.00
2022-08-18T04:18:03.655Z,100.00
2022-08-18T04:20:24.785Z,100.00
2022-08-18T04:22:51.083Z,100.00
2022-08-18T04:25:17.329Z,100.00
2022-08-18T04:27:43.637Z,100.00
2022-08-18T04:30:09.882Z,100.00
2022-08-18T04:32:36.120Z,100.00
2022-08-18T04:35:02.706Z,100.00
2022-08-18T04:37:29.431Z,100.00
2022-08-18T04:39:55.773Z,100.00
2022-08-18T04:42:22.035Z,100.00
2022-08-18T04:44:48.274Z,100.00
2022-08-18T04:47:14.493Z,100.00
2022-08-18T04:49:40.745Z,100.00
2022-08-18T04:52:33.941Z,100.00
2022-08-18T04:54:53.286Z,100.00
2022-08-18T04:57:19.552Z,100.00
2022-08-18T04:59:45.784Z,100.00
2022-08-18T05:02:14.746Z,100.00
2022-08-18T05:04:41.220Z,100.00
2022-08-18T05:07:07.454Z,100.00
2022-08-18T05:09:33.722Z,100.00
2022-08-18T05:12:07.771Z,100.00
2022-08-18T05:14:34.042Z,100.00
2022-08-18T05:17:00.377Z,100.00
2022-08-18T05:19:26.823Z,100.00
2022-08-18T05:21:53.369Z,100.00
2022-08-18T05:24:23.895Z,100.00
2022-08-18T05:26:50.153Z,100.00
2022-08-18T05:29:17.899Z,100.00
2022-08-18T05:31:45.472Z,100.00
2022-08-18T05:34:11.763Z,100.00
2022-08-18T05:36:38.017Z,100.00
2022-08-18T05:39:04.306Z,100.00
2022-08-18T05:41:30.577Z,100.00
2022-08-18T05:43:56.789Z,100.00
2022-08-18T05:46:23.051Z,100.00
2022-08-18T05:48:49.283Z,100.00
2022-08-18T05:51:15.623Z,100.00
2022-08-18T05:53:41.954Z,100.00
2022-08-18T05:56:08.174Z,100.00
2022-08-18T05:58:34.428Z,100.00
2022-08-18T06:01:00.649Z,100.00
2022-08-18T06:03:27.871Z,100.00
2022-08-18T06:05:55.805Z,100.00
2022-08-18T06:08:22.026Z,100.00
2022-08-18T06:10:48.294Z,100.00
2022-08-18T06:13:14.525Z,100.00
2022-08-18T06:15:40.768Z,100.00
2022-08-18T06:18:07.002Z,100.00
2022-08-18T06:20:33.390Z,100.00
2022-08-18T06:22:59.618Z,100.00
2022-08-18T06:25:25.929Z,100.00
2022-08-18T06:27:52.336Z,100.00
2022-08-18T06:30:18.802Z,100.00
2022-08-18T06:32:45.072Z,100.00
2022-08-18T06:35:11.299Z,100.00
2022-08-18T06:37:37.562Z,100.00
2022-08-18T06:40:03.905Z,100.00
2022-08-18T06:42:30.173Z,100.00
2022-08-18T06:44:56.478Z,100.00
2022-08-18T06:47:22.722Z,100.00
2022-08-18T06:49:49.040Z,100.00
2022-08-18T06:52:15.496Z,100.00
2022-08-18T06:54:41.754Z,100.00
2022-08-18T06:57:15.789Z,100.00
2022-08-18T06:59:42.235Z,100.00
2022-08-18T07:02:08.495Z,100.00
2022-08-18T07:04:34.728Z,100.00
2022-08-18T07:07:01.082Z,100.00
2022-08-18T07:09:27.395Z,100.00
2022-08-18T07:11:53.886Z,100.00
2022-08-18T07:14:20.119Z,100.00
2022-08-18T07:17:01.785Z,100.00
2022-08-18T07:19:28.016Z,100.00
2022-08-18T07:21:54.223Z,100.00
2022-08-18T07:24:25.129Z,100.00
2022-08-18T07:26:53.960Z,100.00
2022-08-18T07:29:20.638Z,100.00
2022-08-18T07:31:48.935Z,100.00
2022-08-18T07:34:15.165Z,100.00
2022-08-18T07:36:41.500Z,100.00
2022-08-18T07:39:07.750Z,100.00
2022-08-18T07:41:33.982Z,100.00
2022-08-18T07:44:00.233Z,100.00
2022-08-18T07:46:26.464Z,100.00
2022-08-18T07:48:52.806Z,100.00
2022-08-18T07:51:19.116Z,100.00
2022-08-18T07:53:54.801Z,100.00
2022-08-18T07:56:22.698Z,100.00
2022-08-18T07:58:48.921Z,100.00
2022-08-18T08:01:15.288Z,100.00
2022-08-18T08:03:41.536Z,100.00
2022-08-18T08:06:07.821Z,100.00
2022-08-18T08:08:34.052Z,100.00
2022-08-18T08:11:00.263Z,100.00
2022-08-18T08:13:53.472Z,100.00
2022-08-18T08:16:12.769Z,100.00
2022-08-18T08:18:39.017Z,100.00
2022-08-18T08:21:05.245Z,100.00
2022-08-18T08:23:31.592Z,100.00
2022-08-18T08:25:57.938Z,100.00
2022-08-18T08:28:24.168Z,100.00
2022-08-18T08:30:50.641Z,100.00
2022-08-18T08:33:16.876Z,100.00
2022-08-18T08:35:49.504Z,100.00
2022-08-18T08:38:40.276Z,100.00
2022-08-18T08:41:03.199Z,100.00
2022-08-18T08:43:29.469Z,100.00
2022-08-18T08:45:55.732Z,100.00
2022-08-18T08:48:21.980Z,99.18
2022-08-18T08:50:48.265Z,99.94
2022-08-18T08:53:14.499Z,97.40
2022-08-18T08:55:40.741Z,97.41
2022-08-18T08:58:07.056Z,95.78
2022-08-18T09:00:33.321Z,95.16
2022-08-18T09:02:59.531Z,93.62
2022-08-18T09:05:25.771Z,91.46
2022-08-18T09:07:51.984Z,92.80
2022-08-18T09:10:18.288Z,89.50
2022-08-18T09:12:44.507Z,92.08
2022-08-18T09:15:10.746Z,92.55
2022-08-18T09:17:37.059Z,90.96
2022-08-18T09:20:03.336Z,90.29
2022-08-18T09:22:29.660Z,90.78
2022-08-18T09:24:56.098Z,89.72
2022-08-18T09:27:22.413Z,82.57
2022-08-18T09:29:48.671Z,81.64
2022-08-18T09:32:15.321Z,81.37
2022-08-18T09:34:45.492Z,79.89
2022-08-18T09:37:11.930Z,80.65
2022-08-18T09:39:38.499Z,74.40
2022-08-18T09:42:04.806Z,75.22
2022-08-18T09:44:31.539Z,78.23
2022-08-18T09:46:57.832Z,76.59
2022-08-18T09:49:24.281Z,72.34
2022-08-18T09:51:53.160Z,71.32
2022-08-18T09:54:20.846Z,70.17
2022-08-18T09:56:54.481Z,71.79
2022-08-18T09:59:22.096Z,68.01
2022-08-18T10:01:52.686Z,67.00
2022-08-18T10:04:21.610Z,64.51
2022-08-18T10:06:49.046Z,62.24
2022-08-18T10:09:27.239Z,59.58
2022-08-18T10:12:02.752Z,60.41
2022-08-18T10:14:30.705Z,57.67
2022-08-18T10:17:21.297Z,59.88
2022-08-18T10:19:45.513Z,57.52
2022-08-18T10:22:16.025Z,55.05
2022-08-18T10:25:14.095Z,56.36
2022-08-18T10:27:46.281Z,52.81
2022-08-18T10:30:15.376Z,53.21
2022-08-18T10:32:41.781Z,54.01
2022-08-18T10:35:10.746Z,53.50
2022-08-18T10:37:37.038Z,54.22
2022-08-18T10:40:03.582Z,53.50
2022-08-18T10:45:22.252Z,53.83
2022-08-18T10:47:51.044Z,53.15
2022-08-18T10:50:17.371Z,54.42
2022-08-18T10:52:47.226Z,51.37
2022-08-18T10:55:17.460Z,51.82
2022-08-18T10:57:43.732Z,51.18
2022-08-18T11:00:11.663Z,51.47
2022-08-18T11:02:38.858Z,51.61
2022-08-18T11:05:05.207Z,51.06
2022-08-18T11:07:36.827Z,51.98
2022-08-18T11:10:28.503Z,52.08
2022-08-18T11:12:52.175Z,51.24
2022-08-18T11:18:05.303Z,50.75
2022-08-18T11:20:36.736Z,49.05
2022-08-18T11:23:03.028Z,48.98
2022-08-18T11:25:29.280Z,50.06
2022-08-18T11:27:55.561Z,49.85
2022-08-18T11:30:30.620Z,47.46
2022-08-18T11:32:58.124Z,48.77
2022-08-18T11:35:25.106Z,49.01
2022-08-18T11:37:54.026Z,48.17
2022-08-18T11:41:02.132Z,46.70
2022-08-18T11:43:07.050Z,45.50
2022-08-18T11:45:33.291Z,44.90
2022-08-18T11:47:59.648Z,45.13
2022-08-18T11:50:25.914Z,45.45
2022-08-18T11:52:53.444Z,46.70
2022-08-18T11:55:24.337Z,45.81
2022-08-18T11:57:51.546Z,44.55
2022-08-18T12:00:24.090Z,45.83
2022-08-18T12:02:50.926Z,44.32
2022-08-18T12:05:17.974Z,44.27
2022-08-18T12:07:57.187Z,44.75
2022-08-18T12:10:26.151Z,45.10
2022-08-18T12:12:55.672Z,45.95
2022-08-18T12:15:23.809Z,44.83
2022-08-18T12:17:52.488Z,44.05
2022-08-18T12:20:19.371Z,43.27
2022-08-18T12:22:45.626Z,43.60
2022-08-18T12:25:12.289Z,43.51
2022-08-18T12:27:38.712Z,41.96
2022-08-18T12:30:04.957Z,41.47
2022-08-18T12:32:46.446Z,41.61
2022-08-18T12:35:21.661Z,43.30
2022-08-18T12:38:12.848Z,42.85
2022-08-18T12:40:34.358Z,43.43
2022-08-18T12:43:00.592Z,43.40
2022-08-18T12:45:27.934Z,42.09
2022-08-18T12:47:55.218Z,41.60
2022-08-18T12:50:31.260Z,41.48
2022-08-18T12:53:01.407Z,40.51
2022-08-18T12:55:28.755Z,40.88
2022-08-18T12:57:55.051Z,40.90
2022-08-18T13:00:27.694Z,42.31
2022-08-18T13:02:54.541Z,40.60
2022-08-18T13:05:26.184Z,40.63
2022-08-18T13:07:53.151Z,38.59
2022-08-18T13:10:35.451Z,38.83
2022-08-18T13:13:05.744Z,39.83
2022-08-18T13:15:31.998Z,40.30
2022-08-18T13:17:58.359Z,40.65
2022-08-18T13:20:24.665Z,39.70
2022-08-18T13:22:52.134Z,39.03
2022-08-18T13:25:33.263Z,39.58
2022-08-18T13:28:05.844Z,39.55
2022-08-18T13:30:32.937Z,40.44
2022-08-18T13:33:02.617Z,39.70
2022-08-18T13:35:35.487Z,39.67
2022-08-18T13:38:17.131Z,39.65
2022-08-18T13:40:45.454Z,41.30
2022-08-18T13:43:13.262Z,42.43
2022-08-18T13:45:40.934Z,39.54
2022-08-18T13:48:07.887Z,40.58
2022-08-18T13:50:35.136Z,40.73
2022-08-18T13:53:01.635Z,41.00
2022-08-18T13:55:27.948Z,41.96
2022-08-18T13:57:54.468Z,41.07
2022-08-18T14:00:29.957Z,41.15
2022-08-18T14:02:57.322Z,41.44
2022-08-18T14:05:50.782Z,42.01
2022-08-18T14:08:09.794Z,42.40
2022-08-18T14:10:36.314Z,42.93
2022-08-18T14:13:20.075Z,43.72
2022-08-18T14:15:52.993Z,44.38
2022-08-18T14:18:20.062Z,44.88
2022-08-18T14:20:48.177Z,44.94
2022-08-18T14:23:23.450Z,44.73
2022-08-18T14:25:50.749Z,44.55
2022-08-18T14:28:18.259Z,44.72
2022-08-18T14:30:54.257Z,44.23
2022-08-18T14:33:21.398Z,44.41
2022-08-18T14:36:06.622Z,43.94
2022-08-18T14:38:36.009Z,43.29
2022-08-18T14:41:02.251Z,42.43
2022-08-18T14:43:28.546Z,43.21
2022-08-18T14:46:14.756Z,43.75
2022-08-18T14:48:42.497Z,42.38
2022-08-18T14:51:09.518Z,43.28
2022-08-18T14:53:35.864Z,43.91
2022-08-18T14:56:02.127Z,43.53
2022-08-18T14:58:28.466Z,43.26
2022-08-18T15:00:56.460Z,43.58
2022-08-18T15:03:31.267Z,43.66
2022-08-18T15:05:58.102Z,44.27
2022-08-18T15:08:25.564Z,43.82
2022-08-18T15:10:53.105Z,43.67
2022-08-18T15:13:19.336Z,44.13
2022-08-18T15:15:51.742Z,43.88
2022-08-18T15:18:22.673Z,44.12
2022-08-18T15:20:49.297Z,44.21
2022-08-18T15:23:15.553Z,45.42
2022-08-18T15:25:42.218Z,46.37
2022-08-18T15:28:08.480Z,48.69
2022-08-18T15:30:42.766Z,49.42
2022-08-18T15:33:09.304Z,50.15
2022-08-18T15:35:44.180Z,51.30
2022-08-18T15:38:10.699Z,51.35
2022-08-18T15:40:41.415Z,51.63
2022-08-18T15:43:10.590Z,52.07
2022-08-18T15:45:36.891Z,53.20
2022-08-18T15:48:09.799Z,53.92
2022-08-18T15:50:39.022Z,53.79
2022-08-18T15:53:07.964Z,53.78
2022-08-18T15:55:36.077Z,54.68
2022-08-18T15:58:03.817Z,54.84
2022-08-18T16:00:37.168Z,55.70
2022-08-18T16:03:03.413Z,56.19
2022-08-18T16:05:35.258Z,57.01
2022-08-18T16:08:01.792Z,58.58
2022-08-18T16:10:28.027Z,61.17
2022-08-18T16:12:54.372Z,77.99
2022-08-18T16:15:21.684Z,94.72
2022-08-18T16:17:48.125Z,100.00
2022-08-18T16:20:14.354Z,100.00
2022-08-18T16:22:40.557Z,100.00
2022-08-18T16:25:06.793Z,100.00
2022-08-18T16:27:33.002Z,100.00
2022-08-18T16:29:59.246Z,100.00
2022-08-18T16:32:25.496Z,100.00
2022-08-18T16:34:51.705Z,100.00
2022-08-18T16:37:17.919Z,100.00
2022-08-18T16:39:44.227Z,100.00
2022-08-18T16:42:10.493Z,100.00
2022-08-18T16:44:36.982Z,100.00
2022-08-18T16:47:03.241Z,100.00
2022-08-18T16:49:29.548Z,100.00
2022-08-18T16:51:55.815Z,100.00
2022-08-18T16:54:22.070Z,100.00
2022-08-18T16:56:48.290Z,100.00
2022-08-18T16:59:14.513Z,100.00
2022-08-18T17:01:49.087Z,100.00
2022-08-18T17:04:20.849Z,100.00
2022-08-18T17:06:48.011Z,100.00
2022-08-18T17:09:14.406Z,100.00
2022-08-18T17:11:48.174Z,100.00
2022-08-18T17:14:18.357Z,100.00
2022-08-18T17:16:46.054Z,100.00
2022-08-18T17:19:12.315Z,100.00
2022-08-18T17:21:38.551Z,100.00
2022-08-18T17:24:04.783Z,100.00
2022-08-18T17:26:32.140Z,100.00
2022-08-18T17:28:58.491Z,100.00
2022-08-18T17:31:24.864Z,100.00
2022-08-18T17:33:51.216Z,100.00
2022-08-18T17:36:17.484Z,100.00
2022-08-18T17:38:43.730Z,100.00
2022-08-18T17:41:09.935Z,100.00
2022-08-18T17:43:36.202Z,100.00
2022-08-18T17:46:02.457Z,100.00
2022-08-18T17:48:28.737Z,100.00
2022-08-18T17:50:54.965Z,100.00
2022-08-18T17:53:21.216Z,100.00
2022-08-18T17:55:47.526Z,100.00
2022-08-18T17:58:13.858Z,100.00
2022-08-18T18:00:40.077Z,100.00
2022-08-18T18:03:06.313Z,100.00
2022-08-18T18:05:34.116Z,100.00
2022-08-18T18:08:00.386Z,100.00
2022-08-18T18:10:26.615Z,100.00
2022-08-18T18:12:54.490Z,100.00
2022-08-18T18:15:25.358Z,100.00
2022-08-18T18:17:53.817Z,100.00
2022-08-18T18:20:20.217Z,100.00
2022-08-18T18:22:46.692Z,100.00
2022-08-18T18:25:12.928Z,100.00
2022-08-18T18:27:39.223Z,100.00
2022-08-18T18:30:05.658Z,100.00
2022-08-18T18:32:31.886Z,100.00
2022-08-18T18:34:58.164Z,100.00
2022-08-18T18:37:24.396Z,100.00
2022-08-18T18:39:50.666Z,100.00
2022-08-18T18:42:16.976Z,100.00
2022-08-18T18:44:43.312Z,100.00
2022-08-18T18:47:09.609Z,100.00
2022-08-18T18:49:35.936Z,100.00
2022-08-18T18:52:02.175Z,100.00
2022-08-18T18:54:28.437Z,100.00
2022-08-18T18:56:54.720Z,100.00
2022-08-18T18:59:21.021Z,100.00
2022-08-18T19:01:47.528Z,100.00
2022-08-18T19:04:13.816Z,100.00
2022-08-18T19:06:40.040Z,100.00
2022-08-18T19:09:06.304Z,100.00
2022-08-18T19:11:32.560Z,100.00
2022-08-18T19:13:58.826Z,100.00
2022-08-18T19:16:25.060Z,100.00
2022-08-18T19:18:57.906Z,100.00
2022-08-18T19:22:03.262Z,100.00
2022-08-18T19:24:25.819Z,100.00
2022-08-18T19:26:52.065Z,100.00
2022-08-18T19:29:18.372Z,100.00
2022-08-18T19:31:44.724Z,100.00
2022-08-18T19:34:10.970Z,100.00
2022-08-18T19:36:39.508Z,100.00
2022-08-18T19:39:10.132Z,100.00
2022-08-18T19:41:39.308Z,100.00
2022-08-18T19:44:05.796Z,100.00
2022-08-18T19:46:32.102Z,100.00
2022-08-18T19:48:58.351Z,100.00
2022-08-18T19:51:24.595Z,100.00
2022-08-18T19:53:52.812Z,100.00
2022-08-18T19:56:21.473Z,100.00
2022-08-18T19:58:58.859Z,100.00
2022-08-18T20:01:34.357Z,100.00
2022-08-18T20:04:00.783Z,100.00
2022-08-18T20:06:33.465Z,100.00
2022-08-18T20:09:01.342Z,100.00
2022-08-18T20:11:31.377Z,100.00
2022-08-18T20:14:08.683Z,100.00
2022-08-18T20:16:43.408Z,100.00
2022-08-18T20:19:15.928Z,100.00
2022-08-18T20:21:42.831Z,100.00
2022-08-18T20:24:09.102Z,100.00
2022-08-18T20:26:35.383Z,100.00
2022-08-18T20:29:01.739Z,100.00
2022-08-18T20:31:28.260Z,100.00
2022-08-18T20:33:54.882Z,100.00
2022-08-18T20:36:21.367Z,100.00
2022-08-18T20:38:48.027Z,100.00
2022-08-18T20:41:14.500Z,100.00
2022-08-18T20:43:40.960Z,100.00
2022-08-18T20:46:07.263Z,100.00
2022-08-18T20:48:33.632Z,100.00
2022-08-18T20:51:00.130Z,100.00
2022-08-18T20:53:26.461Z,100.00
2022-08-18T20:55:56.829Z,100.00
2022-08-18T20:58:23.255Z,100.00
2022-08-18T21:00:49.523Z,100.00
2022-08-18T21:03:15.814Z,100.00
2022-08-18T21:05:42.048Z,100.00
2022-08-18T21:08:08.301Z,100.00
2022-08-18T21:10:34.559Z,100.00
2022-08-18T21:13:00.820Z,100.00
2022-08-18T21:15:27.076Z,100.00
2022-08-18T21:17:56.796Z,100.00
2022-08-18T21:20:23.364Z,100.00
2022-08-18T21:22:49.635Z,100.00
2022-08-18T21:25:15.847Z,100.00
2022-08-18T21:27:42.095Z,100.00
2022-08-18T21:30:08.459Z,100.00
2022-08-18T21:32:34.729Z,100.00
2022-08-18T21:35:00.988Z,100.00
2022-08-18T21:37:27.245Z,100.00
2022-08-18T21:39:56.852Z,100.00
2022-08-18T21:42:23.165Z,100.00
2022-08-18T21:44:49.468Z,100.00
2022-08-18T21:47:15.782Z,100.00
2022-08-18T21:49:42.088Z,100.00
2022-08-18T21:52:09.700Z,100.00
2022-08-18T21:54:37.473Z,100.00
2022-08-18T21:57:11.288Z,100.00
2022-08-18T21:59:37.973Z,100.00
2022-08-18T22:02:04.234Z,100.00
2022-08-18T22:04:30.516Z,100.00
2022-08-18T22:06:56.854Z,100.00
2022-08-18T22:09:23.133Z,100.00
2022-08-18T22:12:01.212Z,100.00
2022-08-18T22:14:28.725Z,100.00
2022-08-18T22:16:55.000Z,100.00
2022-08-18T22:19:21.243Z,100.00
2022-08-18T22:21:47.568Z,100.00
2022-08-18T22:24:13.994Z,100.00
2022-08-18T22:26:40.243Z,100.00
2022-08-18T22:29:06.510Z,100.00
2022-08-18T22:31:32.787Z,100.00
2022-08-18T22:33:59.143Z,100.00
2022-08-18T22:36:25.453Z,100.00
2022-08-18T22:38:51.673Z,100.00
2022-08-18T22:41:17.898Z,100.00
2022-08-18T22:43:44.149Z,100.00
2022-08-18T22:46:10.385Z,100.00
2022-08-18T22:48:36.706Z,100.00
2022-08-18T22:51:03.027Z,100.00
2022-08-18T22:53:29.267Z,100.00
2022-08-18T22:55:55.484Z,100.00
2022-08-18T22:58:28.203Z,100.00
2022-08-18T23:00:54.735Z,100.00
2022-08-18T23:03:31.953Z,100.00
2022-08-18T23:06:03.090Z,100.00
2022-08-18T23:08:54.227Z,100.00
2022-08-18T23:11:15.547Z,100.00
2022-08-18T23:13:41.753Z,100.00
2022-08-18T23:16:30.687Z,100.00
2022-08-18T23:18:54.176Z,100.00
2022-08-18T23:21:35.039Z,100.00
2022-08-18T23:24:01.814Z,100.00
2022-08-18T23:26:29.631Z,100.00
2022-08-18T23:28:56.853Z,100.00
2022-08-18T23:31:23.188Z,100.00
2022-08-18T23:33:49.552Z,100.00
2022-08-18T23:36:15.807Z,100.00
2022-08-18T23:38:42.049Z,100.00
2022-08-18T23:41:08.372Z,100.00
2022-08-18T23:43:34.680Z,100.00
2022-08-18T23:46:00.956Z,100.00
2022-08-18T23:48:27.233Z,100.00
2022-08-18T23:50:53.486Z,100.00
2022-08-18T23:53:19.735Z,100.00
2022-08-18T23:55:46.053Z,100.00
2022-08-18T23:58:12.391Z,100.00
